createdAt,value
2023-10-07T00:00:07.800Z,96252.13
2023-10-07T00:03:09.594Z,96249.81
2023-10-07T00:06:12.813Z,96246.38
2023-10-07T00:09:14.878Z,96241.69
2023-10-07T00:12:17.099Z,96241.72
2023-10-07T00:15:19.961Z,96242.88
2023-10-07T00:18:21.780Z,96232.78
2023-10-07T00:21:26.120Z,96242.84
2023-10-07T00:24:28.612Z,96237.41
2023-10-07T00:27:30.378Z,96233.16
2023-10-07T00:30:32.419Z,96230.41
2023-10-07T00:33:34.949Z,96229.59
2023-10-07T00:36:38.550Z,96230.41
2023-10-07T00:39:40.466Z,96221.88
2023-10-07T00:42:42.644Z,96219.94
2023-10-07T00:45:45.537Z,96220.63
2023-10-07T00:48:47.799Z,96218.66
2023-10-07T00:51:52.486Z,96219.81
2023-10-07T00:54:56.074Z,96209.81
2023-10-07T00:57:58.518Z,96213.56
2023-10-07T01:01:01.119Z,96218.59
2023-10-07T01:04:03.272Z,96210.09
2023-10-07T01:07:06.536Z,96206.03
2023-10-07T01:10:10.737Z,96200.28
2023-10-07T01:13:12.831Z,96196.00
2023-10-07T01:16:14.658Z,96197.56
2023-10-07T01:19:17.548Z,96194.47
2023-10-07T01:22:21.144Z,96195.56
2023-10-07T01:25:23.507Z,96188.97
2023-10-07T01:28:25.542Z,96189.72
2023-10-07T01:31:27.450Z,96191.28
2023-10-07T01:34:29.590Z,96181.56
2023-10-07T01:37:32.888Z,96187.84
2023-10-07T01:40:35.611Z,96180.50
2023-10-07T01:43:37.411Z,96171.22
2023-10-07T01:46:39.406Z,96175.06
2023-10-07T01:49:41.270Z,96178.19
2023-10-07T01:52:44.734Z,96175.00
2023-10-07T01:55:47.015Z,96175.00
2023-10-07T01:58:49.123Z,96175.06
2023-10-07T02:01:51.374Z,96173.09
2023-10-07T02:04:54.182Z,96175.41
2023-10-07T02:07:57.546Z,96173.31
2023-10-07T02:10:59.565Z,96176.78
2023-10-07T02:14:01.834Z,96178.81
2023-10-07T02:17:04.606Z,96178.09
2023-10-07T02:20:10.344Z,96173.53
2023-10-07T02:23:13.540Z,96180.53
2023-10-07T02:26:17.374Z,96179.91
2023-10-07T02:29:19.127Z,96173.34
2023-10-07T02:32:22.873Z,96180.38
2023-10-07T02:35:24.980Z,96179.31
2023-10-07T02:38:28.346Z,96174.09
2023-10-07T02:41:31.292Z,96174.31
2023-10-07T02:44:33.477Z,96178.97
2023-10-07T02:47:35.364Z,96178.75
2023-10-07T02:50:43.111Z,96178.09
2023-10-07T02:53:46.469Z,96172.34
2023-10-07T02:56:50.744Z,96185.25
2023-10-07T02:59:53.581Z,96184.91
2023-10-07T03:02:55.933Z,96185.69
2023-10-07T03:05:57.835Z,96183.78
2023-10-07T03:09:01.141Z,96181.44
2023-10-07T03:12:03.233Z,96187.97
2023-10-07T03:15:05.931Z,96200.44
2023-10-07T03:18:08.538Z,96198.19
2023-10-07T03:21:10.461Z,96202.03
2023-10-07T03:24:13.961Z,96200.06
2023-10-07T03:27:15.940Z,96214.38
2023-10-07T03:30:17.950Z,96201.59
2023-10-07T03:33:20.501Z,96195.81
2023-10-07T03:36:23.348Z,96200.88
2023-10-07T03:39:26.894Z,96205.56
2023-10-07T03:42:30.772Z,96205.16
2023-10-07T03:45:32.501Z,96211.66
2023-10-07T03:48:34.322Z,96208.22
2023-10-07T03:51:36.441Z,96200.44
2023-10-07T03:54:40.410Z,96208.16
2023-10-07T03:57:42.474Z,96203.50
2023-10-07T04:00:44.616Z,96209.63
2023-10-07T04:03:47.685Z,96209.63
2023-10-07T04:06:50.010Z,96209.50
2023-10-07T04:09:53.219Z,96201.38
2023-10-07T04:12:54.909Z,96212.28
2023-10-07T04:15:56.618Z,96198.66
2023-10-07T04:18:59.334Z,96198.19
2023-10-07T04:22:01.064Z,96194.78
2023-10-07T04:25:05.202Z,96198.22
2023-10-07T04:28:06.969Z,96204.44
2023-10-07T04:31:10.258Z,96205.63
2023-10-07T04:34:15.107Z,96203.28
2023-10-07T04:37:18.800Z,96198.91
2023-10-07T04:40:23.367Z,96206.28
2023-10-07T04:43:25.069Z,96202.47
2023-10-07T04:46:27.187Z,96216.06
2023-10-07T04:49:29.002Z,96209.78
2023-10-07T04:52:32.685Z,96223.75
2023-10-07T04:55:35.889Z,96211.78
2023-10-07T04:58:37.953Z,96209.84
2023-10-07T05:01:39.787Z,96212.88
2023-10-07T05:04:41.733Z,96215.66
2023-10-07T05:07:43.611Z,96215.75
2023-10-07T05:10:46.980Z,96210.72
2023-10-07T05:13:48.873Z,96224.19
2023-10-07T05:16:50.880Z,96220.69
2023-10-07T05:19:52.965Z,96228.00
2023-10-07T05:22:55.165Z,96221.75
2023-10-07T05:25:58.595Z,96228.31
2023-10-07T05:29:00.939Z,96237.50
2023-10-07T05:32:03.199Z,96230.97
2023-10-07T05:35:08.189Z,96228.97
2023-10-07T05:38:10.145Z,96235.84
2023-10-07T05:41:13.665Z,96236.63
2023-10-07T05:44:17.587Z,96240.09
2023-10-07T05:47:19.455Z,96243.25
2023-10-07T05:50:21.308Z,96247.59
2023-10-07T05:53:23.095Z,96249.56
2023-10-07T05:56:26.389Z,96241.38
2023-10-07T05:59:28.176Z,96242.19
2023-10-07T06:02:30.393Z,96248.03
2023-10-07T06:05:33.528Z,96261.94
2023-10-07T06:08:35.391Z,96256.91
2023-10-07T06:11:40.011Z,96258.06
2023-10-07T06:14:42.252Z,96263.50
2023-10-07T06:17:44.105Z,96262.78
2023-10-07T06:20:47.178Z,96262.03
2023-10-07T06:23:49.117Z,96272.91
2023-10-07T06:26:52.372Z,96280.69
2023-10-07T06:29:54.157Z,96279.56
2023-10-07T06:32:56.618Z,96276.09
2023-10-07T06:35:59.321Z,96280.78
2023-10-07T06:39:02.004Z,96277.34
2023-10-07T06:42:05.342Z,96272.34
2023-10-07T06:45:08.902Z,96282.44
2023-10-07T06:48:10.922Z,96276.59
2023-10-07T06:51:14.402Z,96286.00
2023-10-07T06:54:16.239Z,96285.97
2023-10-07T06:57:21.294Z,96280.56
2023-10-07T07:00:23.981Z,96284.56
2023-10-07T07:03:25.994Z,96297.34
2023-10-07T07:06:27.984Z,96300.91
2023-10-07T07:09:29.750Z,96307.91
2023-10-07T07:12:33.430Z,96303.63
2023-10-07T07:15:35.758Z,96303.25
2023-10-07T07:18:37.886Z,96292.44
2023-10-07T07:21:40.258Z,96287.84
2023-10-07T07:24:41.982Z,96290.59
2023-10-07T07:27:46.971Z,96296.09
2023-10-07T07:30:48.891Z,96303.88
2023-10-07T07:33:51.049Z,96303.91
2023-10-07T07:36:54.609Z,96306.25
2023-10-07T07:39:56.564Z,96297.72
2023-10-07T07:43:00.550Z,96306.63
2023-10-07T07:46:09.578Z,96306.25
2023-10-07T07:49:14.785Z,96307.00
2023-10-07T07:52:16.565Z,96308.19
2023-10-07T07:55:23.758Z,96314.03
2023-10-07T07:58:27.118Z,96316.38
2023-10-07T08:01:29.331Z,96312.53
2023-10-07T08:04:33.659Z,96319.88
2023-10-07T08:07:36.203Z,96320.66
2023-10-07T08:10:38.173Z,96313.28
2023-10-07T08:13:43.073Z,96316.41
2023-10-07T08:16:45.564Z,96317.16
2023-10-07T08:19:49.555Z,96304.75
2023-10-07T08:22:52.018Z,96310.16
2023-10-07T08:25:56.369Z,96305.91
2023-10-07T08:28:59.595Z,96298.88
2023-10-07T08:32:02.354Z,96302.41
2023-10-07T08:35:06.809Z,96289.94
2023-10-07T08:38:08.822Z,96302.75
2023-10-07T08:41:11.559Z,96307.41
2023-10-07T08:44:15.217Z,96303.53
2023-10-07T08:47:20.093Z,96297.31
2023-10-07T08:50:26.302Z,96295.69
2023-10-07T08:53:28.222Z,96299.53
2023-10-07T08:56:34.410Z,96290.13
2023-10-07T08:59:37.754Z,96292.44
2023-10-07T09:02:39.517Z,96280.72
2023-10-07T09:05:41.345Z,96285.00
2023-10-07T09:08:44.976Z,96281.81
2023-10-07T09:11:47.438Z,96294.97
2023-10-07T09:14:51.969Z,96303.16
2023-10-07T09:17:59.319Z,96303.13
2023-10-07T09:21:02.032Z,96303.50
2023-10-07T09:24:04.306Z,96302.28
2023-10-07T09:27:07.363Z,96303.06
2023-10-07T09:30:11.471Z,96291.31
2023-10-07T09:33:14.682Z,96301.78
2023-10-07T09:36:19.641Z,96294.41
2023-10-07T09:39:23.192Z,96282.38
2023-10-07T09:42:25.265Z,96272.50
2023-10-07T09:45:32.446Z,96274.03
2023-10-07T09:48:35.123Z,96281.38
2023-10-07T09:51:37.092Z,96276.94
2023-10-07T09:54:50.324Z,96278.03
2023-10-07T09:58:11.718Z,96272.16
2023-10-07T10:01:26.464Z,96266.22
2023-10-07T10:04:53.271Z,96266.19
2023-10-07T10:08:31.152Z,96257.97
2023-10-07T10:11:32.958Z,96257.44
2023-10-07T10:14:35.218Z,96260.47
2023-10-07T10:17:42.070Z,96263.16
2023-10-07T10:20:44.553Z,96261.53
2023-10-07T10:23:49.863Z,96259.81
2023-10-07T10:26:52.134Z,96256.28
2023-10-07T10:29:55.737Z,96265.59
2023-10-07T10:33:00.237Z,96262.34
2023-10-07T10:36:06.523Z,96259.28
2023-10-07T10:39:29.215Z,96252.53
2023-10-07T10:42:41.054Z,96242.72
2023-10-07T10:45:43.476Z,96233.25
2023-10-07T10:48:51.055Z,96236.28
2023-10-07T10:51:53.185Z,96234.69
2023-10-07T10:54:54.940Z,96221.31
2023-10-07T10:57:57.011Z,96227.09
2023-10-07T11:00:58.906Z,96218.97
2023-10-07T11:04:04.481Z,96208.47
2023-10-07T11:07:06.629Z,96220.81
2023-10-07T11:10:10.293Z,96221.22
2023-10-07T11:13:13.088Z,96224.69
2023-10-07T11:16:14.973Z,96225.63
2023-10-07T11:19:19.724Z,96217.00
2023-10-07T11:22:21.660Z,96213.84
2023-10-07T11:25:27.826Z,96201.25
2023-10-07T11:28:32.016Z,96197.91
2023-10-07T11:31:34.305Z,96194.34
2023-10-07T11:34:39.000Z,96196.13
2023-10-07T11:37:48.914Z,96200.63
2023-10-07T11:40:50.841Z,96202.47
2023-10-07T11:43:52.682Z,96194.19
2023-10-07T11:46:54.845Z,96207.56
2023-10-07T11:49:58.292Z,96197.88
2023-10-07T11:53:00.186Z,96186.81
2023-10-07T11:56:03.949Z,96180.34
2023-10-07T11:59:05.831Z,96190.03
2023-10-07T12:02:08.248Z,96185.97
2023-10-07T12:05:11.554Z,96193.06
2023-10-07T12:08:14.112Z,96191.59
2023-10-07T12:11:16.328Z,96191.44
2023-10-07T12:14:24.170Z,96185.69
2023-10-07T12:17:26.437Z,96188.78
2023-10-07T12:20:33.648Z,96188.00
2023-10-07T12:23:35.545Z,96191.81
2023-10-07T12:26:37.388Z,96197.91
2023-10-07T12:29:41.319Z,96188.78
2023-10-07T12:32:43.257Z,96196.38
2023-10-07T12:35:48.038Z,96193.63
2023-10-07T12:38:49.953Z,96193.91
2023-10-07T12:41:52.094Z,96194.28
2023-10-07T12:44:56.967Z,96196.00
2023-10-07T12:47:58.794Z,96190.47
2023-10-07T12:51:04.426Z,96193.13
2023-10-07T12:54:06.673Z,96200.09
2023-10-07T12:57:10.582Z,96193.13
2023-10-07T13:00:13.801Z,96194.97
2023-10-07T13:03:16.016Z,96193.56
2023-10-07T13:06:20.710Z,96194.25
2023-10-07T13:09:22.569Z,96188.38
2023-10-07T13:12:25.815Z,96193.28
2023-10-07T13:15:28.623Z,96188.13
2023-10-07T13:18:33.493Z,96176.13
2023-10-07T13:21:36.674Z,96185.03
2023-10-07T13:24:40.321Z,96190.41
2023-10-07T13:27:42.345Z,96191.38
2023-10-07T13:30:44.549Z,96193.16
2023-10-07T13:33:48.154Z,96198.56
2023-10-07T13:36:51.609Z,96189.69
2023-10-07T13:39:54.983Z,96191.31
2023-10-07T13:42:56.904Z,96185.38
2023-10-07T13:45:59.427Z,96187.81
2023-10-07T13:49:01.377Z,96197.63
2023-10-07T13:52:04.802Z,96186.69
2023-10-07T13:55:10.046Z,96187.81
2023-10-07T13:58:12.789Z,96180.50
2023-10-07T14:01:14.614Z,96185.91
2023-10-07T14:04:18.714Z,96178.75
2023-10-07T14:07:21.933Z,96178.88
2023-10-07T14:10:24.118Z,96174.66
2023-10-07T14:13:28.344Z,96174.34
2023-10-07T14:16:30.234Z,96175.03
2023-10-07T14:19:33.859Z,96168.22
2023-10-07T14:22:37.047Z,96174.00
2023-10-07T14:25:38.874Z,96173.03
2023-10-07T14:28:45.498Z,96182.78
2023-10-07T14:31:47.838Z,96175.66
2023-10-07T14:34:49.949Z,96175.59
2023-10-07T14:37:55.281Z,96181.47
2023-10-07T14:40:57.213Z,96177.63
2023-10-07T14:44:00.240Z,96179.75
2023-10-07T14:47:05.109Z,96186.28
2023-10-07T14:50:09.154Z,96183.06
2023-10-07T14:53:13.548Z,96184.72
2023-10-07T14:56:17.360Z,96188.59
2023-10-07T14:59:22.237Z,96178.84
2023-10-07T15:02:25.131Z,96183.53
2023-10-07T15:05:27.501Z,96180.88
2023-10-07T15:08:32.223Z,96175.66
2023-10-07T15:11:34.030Z,96181.25
2023-10-07T15:14:37.932Z,96172.28
2023-10-07T15:17:39.797Z,96171.94
2023-10-07T15:20:41.687Z,96165.78
2023-10-07T15:23:46.129Z,96164.66
2023-10-07T15:26:48.698Z,96167.63
2023-10-07T15:29:53.329Z,96170.44
2023-10-07T15:32:55.515Z,96182.25
2023-10-07T15:35:57.352Z,96176.41
2023-10-07T15:39:03.287Z,96173.69
2023-10-07T15:42:05.519Z,96191.25
2023-10-07T15:45:10.290Z,96190.19
2023-10-07T15:48:12.662Z,96197.25
2023-10-07T15:51:15.003Z,96200.69
2023-10-07T15:54:18.285Z,96200.03
2023-10-07T15:57:21.971Z,96196.19
2023-10-07T16:00:24.611Z,96197.31
2023-10-07T16:03:26.477Z,96204.75
2023-10-07T16:06:28.710Z,96206.75
2023-10-07T16:09:32.570Z,96202.41
2023-10-07T16:12:34.979Z,96199.53
2023-10-07T16:15:37.116Z,96201.16
2023-10-07T16:18:41.312Z,96195.69
2023-10-07T16:21:44.193Z,96199.56
2023-10-07T16:24:47.771Z,96202.22
2023-10-07T16:27:51.277Z,96210.84
2023-10-07T16:30:53.309Z,96222.94
2023-10-07T16:33:55.474Z,96227.44
2023-10-07T16:36:57.479Z,96231.22
2023-10-07T16:40:00.808Z,96228.16
2023-10-07T16:43:03.069Z,96224.25
2023-10-07T16:46:06.204Z,96233.69
2023-10-07T16:49:08.429Z,96227.75
2023-10-07T16:52:10.331Z,96230.16
2023-10-07T16:55:16.873Z,96226.59
2023-10-07T16:58:18.800Z,96230.56
2023-10-07T17:01:21.303Z,96231.06
2023-10-07T17:04:24.121Z,96230.19
2023-10-07T17:07:27.089Z,96226.78
2023-10-07T17:10:37.778Z,96236.78
2023-10-07T17:13:41.835Z,96231.00
2023-10-07T17:16:43.914Z,96230.50
2023-10-07T17:19:51.845Z,96242.97
2023-10-07T17:22:55.537Z,96241.94
2023-10-07T17:26:01.449Z,96245.75
2023-10-07T17:29:06.694Z,96253.88
2023-10-07T17:32:11.118Z,96247.63
2023-10-07T17:35:16.458Z,96266.69
2023-10-07T17:38:25.194Z,96249.06
2023-10-07T17:41:30.528Z,96253.28
2023-10-07T17:44:34.877Z,96251.44
2023-10-07T17:47:40.665Z,96239.34
2023-10-07T17:50:45.546Z,96247.59
2023-10-07T17:53:50.234Z,96235.03
2023-10-07T17:56:55.787Z,96249.50
2023-10-07T17:59:57.791Z,96247.97
2023-10-07T18:03:00.685Z,96255.31
2023-10-07T18:06:06.413Z,96250.56
2023-10-07T18:09:18.759Z,96256.03
2023-10-07T18:12:22.345Z,96261.00
2023-10-07T18:15:24.407Z,96255.09
2023-10-07T18:18:29.525Z,96255.97
2023-10-07T18:21:31.313Z,96262.19
2023-10-07T18:24:33.751Z,96239.91
2023-10-07T18:27:39.255Z,96241.91
2023-10-07T18:30:41.742Z,96237.59
2023-10-07T18:33:44.038Z,96243.03
2023-10-07T18:36:47.409Z,96248.63
2023-10-07T18:39:51.393Z,96252.19
2023-10-07T18:42:55.501Z,96245.84
2023-10-07T18:45:57.936Z,96245.41
2023-10-07T18:49:02.976Z,96246.50
2023-10-07T18:52:06.189Z,96239.50
2023-10-07T18:55:11.382Z,96247.78
2023-10-07T18:58:15.768Z,96243.88
2023-10-07T19:01:19.382Z,96241.06
2023-10-07T19:04:23.054Z,96246.16
2023-10-07T19:07:26.758Z,96239.88
2023-10-07T19:10:29.912Z,96238.59
2023-10-07T19:13:38.761Z,96236.28
2023-10-07T19:16:42.738Z,96244.50
2023-10-07T19:19:48.509Z,96249.88
2023-10-07T19:22:52.589Z,96247.13
2023-10-07T19:25:57.035Z,96246.41
2023-10-07T19:29:03.400Z,96256.13
2023-10-07T19:32:07.369Z,96253.66
2023-10-07T19:35:11.072Z,96243.09
2023-10-07T19:38:13.868Z,96244.56
2023-10-07T19:41:16.166Z,96247.63
2023-10-07T19:44:20.186Z,96257.41
2023-10-07T19:47:22.328Z,96235.91
2023-10-07T19:50:25.861Z,96237.06
2023-10-07T19:53:27.725Z,96239.69
2023-10-07T19:56:31.867Z,96240.81
2023-10-07T19:59:37.504Z,96238.88
2023-10-07T20:02:39.682Z,96232.63
2023-10-07T20:05:43.069Z,96225.34
2023-10-07T20:08:45.384Z,96223.06
2023-10-07T20:11:48.710Z,96221.09
2023-10-07T20:14:54.232Z,96212.50
2023-10-07T20:17:56.379Z,96220.34
2023-10-07T20:20:59.154Z,96215.56
2023-10-07T20:24:01.288Z,96209.72
2023-10-07T20:27:04.472Z,96206.63
2023-10-07T20:30:08.626Z,96189.75
2023-10-07T20:33:10.540Z,96188.19
2023-10-07T20:36:13.113Z,96186.63
2023-10-07T20:39:14.984Z,96191.84
2023-10-07T20:42:16.902Z,96188.38
2023-10-07T20:45:20.884Z,96187.59
2023-10-07T20:48:24.452Z,96178.22
2023-10-07T20:51:27.672Z,96168.06
2023-10-07T20:54:30.658Z,96174.41
2023-10-07T20:57:32.645Z,96182.25
2023-10-07T21:00:41.469Z,96167.00
2023-10-07T21:03:43.545Z,96161.53
2023-10-07T21:06:46.159Z,96160.94
2023-10-07T21:09:48.017Z,96170.13
2023-10-07T21:12:50.138Z,96165.09
2023-10-07T21:15:55.741Z,96164.28
2023-10-07T21:18:57.515Z,96152.78
2023-10-07T21:21:59.224Z,96150.47
2023-10-07T21:25:02.491Z,96152.78
2023-10-07T21:28:07.520Z,96158.88
2023-10-07T21:31:11.344Z,96155.78
2023-10-07T21:34:13.457Z,96156.50
2023-10-07T21:37:15.507Z,96165.66
2023-10-07T21:40:17.241Z,96149.59
2023-10-07T21:43:19.020Z,96150.16
2023-10-07T21:46:22.832Z,96158.81
2023-10-07T21:49:26.293Z,96160.59
2023-10-07T21:52:31.485Z,96162.88
2023-10-07T21:55:34.083Z,96150.81
2023-10-07T21:58:40.099Z,96158.00
2023-10-07T22:01:43.262Z,96154.81
2023-10-07T22:04:45.207Z,96157.63
2023-10-07T22:07:48.829Z,96145.34
2023-10-07T22:10:50.576Z,96140.00
2023-10-07T22:13:52.468Z,96140.28
2023-10-07T22:16:57.557Z,96136.00
2023-10-07T22:20:00.115Z,96141.81
2023-10-07T22:23:02.672Z,96146.25
2023-10-07T22:26:05.445Z,96146.38
2023-10-07T22:29:07.644Z,96138.91
2023-10-07T22:32:10.806Z,96135.59
2023-10-07T22:35:16.411Z,96140.94
2023-10-07T22:38:25.362Z,96125.28
2023-10-07T22:41:27.128Z,96125.94
2023-10-07T22:44:29.117Z,96116.53
2023-10-07T22:47:32.365Z,96126.72
2023-10-07T22:50:36.113Z,96121.72
2023-10-07T22:53:38.185Z,96122.16
2023-10-07T22:56:40.172Z,96126.66
2023-10-07T22:59:44.515Z,96108.47
2023-10-07T23:02:48.171Z,96126.28
2023-10-07T23:05:52.470Z,96122.38
2023-10-07T23:08:56.493Z,96111.50
2023-10-07T23:11:58.452Z,96119.13
2023-10-07T23:15:02.055Z,96102.34
2023-10-07T23:18:05.817Z,96108.69
2023-10-07T23:21:08.365Z,96106.91
2023-10-07T23:24:14.311Z,96100.25
2023-10-07T23:27:18.885Z,96096.25
2023-10-07T23:30:21.497Z,96099.75
2023-10-07T23:33:24.718Z,96117.38
2023-10-07T23:36:28.568Z,96117.38
2023-10-07T23:39:30.790Z,96099.47
2023-10-07T23:42:33.219Z,96117.88
2023-10-07T23:45:37.587Z,96147.13
2023-10-07T23:48:40.928Z,96120.53
2023-10-07T23:51:44.194Z,96119.81
2023-10-07T23:54:45.878Z,96116.97
2023-10-07T23:57:50.281Z,96111.38
